sensor_id;sensor_type;location;lat;lon;timestamp;pressure;altitude;pressure_sealevel;temperature;humidity
32638;BME280;19045;52.268;10.506;2023-03-25T00:00:10;99281.03;;;9.52;88.71
32638;BME280;19045;52.268;10.506;2023-03-25T00:02:41;99282.38;;;9.49;88.54
32638;BME280;19045;52.268;10.506;2023-03-25T00:05:09;99274.34;;;9.49;88.36
32638;BME280;19045;52.268;10.506;2023-03-25T00:07:37;99271.16;;;9.47;88.42
32638;BME280;19045;52.268;10.506;2023-03-25T00:10:04;99276.78;;;9.46;88.87
32638;BME280;19045;52.268;10.506;2023-03-25T00:12:32;99267.66;;;9.47;88.61
32638;BME280;19045;52.268;10.506;2023-03-25T00:15:00;99260.38;;;9.52;88.30
32638;BME280;19045;52.268;10.506;2023-03-25T00:17:27;99268.72;;;9.51;88.67
32638;BME280;19045;52.268;10.506;2023-03-25T00:19:55;99258.00;;;9.51;88.78
32638;BME280;19045;52.268;10.506;2023-03-25T00:22:22;99258.78;;;9.51;88.70
32638;BME280;19045;52.268;10.506;2023-03-25T00:24:48;99257.69;;;9.52;88.81
32638;BME280;19045;52.268;10.506;2023-03-25T00:27:17;99258.00;;;9.51;88.70
32638;BME280;19045;52.268;10.506;2023-03-25T00:29:46;99250.72;;;9.51;89.07
32638;BME280;19045;52.268;10.506;2023-03-25T00:32:15;99250.97;;;9.55;89.27
32638;BME280;19045;52.268;10.506;2023-03-25T00:34:41;99252.63;;;9.51;89.54
32638;BME280;19045;52.268;10.506;2023-03-25T00:37:11;99243.50;;;9.52;89.58
32638;BME280;19045;52.268;10.506;2023-03-25T00:39:42;99255.31;;;9.51;89.61
32638;BME280;19045;52.268;10.506;2023-03-25T00:42:09;99256.91;;;9.52;89.83
32638;BME280;19045;52.268;10.506;2023-03-25T00:44:38;99258.25;;;9.49;89.86
32638;BME280;19045;52.268;10.506;2023-03-25T00:47:05;99253.41;;;9.51;90.23
32638;BME280;19045;52.268;10.506;2023-03-25T00:49:33;99260.44;;;9.47;90.37
32638;BME280;19045;52.268;10.506;2023-03-25T00:51:59;99253.50;;;9.41;90.81
32638;BME280;19045;52.268;10.506;2023-03-25T00:54:26;99262.06;;;9.43;90.63
32638;BME280;19045;52.268;10.506;2023-03-25T00:56:55;99259.94;;;9.40;91.24
32638;BME280;19045;52.268;10.506;2023-03-25T00:59:21;99257.81;;;9.32;90.94
32638;BME280;19045;52.268;10.506;2023-03-25T01:01:48;99259.44;;;9.28;91.34
32638;BME280;19045;52.268;10.506;2023-03-25T01:04:17;99255.16;;;9.32;91.28
32638;BME280;19045;52.268;10.506;2023-03-25T01:06:45;99255.75;;;9.24;92.04
32638;BME280;19045;52.268;10.506;2023-03-25T01:09:19;99234.88;;;9.21;92.01
32638;BME280;19045;52.268;10.506;2023-03-25T01:11:46;99247.47;;;9.15;91.95
32638;BME280;19045;52.268;10.506;2023-03-25T01:14:16;99249.34;;;9.15;92.15
32638;BME280;19045;52.268;10.506;2023-03-25T01:16:43;99237.31;;;9.12;92.48
32638;BME280;19045;52.268;10.506;2023-03-25T01:19:11;99243.22;;;9.09;92.62
32638;BME280;19045;52.268;10.506;2023-03-25T01:21:39;99244.28;;;9.08;92.81
32638;BME280;19045;52.268;10.506;2023-03-25T01:24:11;99249.94;;;9.02;92.94
32638;BME280;19045;52.268;10.506;2023-03-25T01:26:38;99245.69;;;9.01;93.48
32638;BME280;19045;52.268;10.506;2023-03-25T01:29:08;99237.91;;;8.99;93.11
32638;BME280;19045;52.268;10.506;2023-03-25T01:31:34;99242.50;;;8.94;93.61
32638;BME280;19045;52.268;10.506;2023-03-25T01:34:01;99245.44;;;8.92;93.71
32638;BME280;19045;52.268;10.506;2023-03-25T01:36:28;99251.59;;;8.93;93.68
32638;BME280;19045;52.268;10.506;2023-03-25T01:38:55;99250.84;;;8.87;93.93
32638;BME280;19045;52.268;10.506;2023-03-25T01:41:24;99247.63;;;8.85;94.40
32638;BME280;19045;52.268;10.506;2023-03-25T01:44:01;99247.34;;;8.87;94.55
32638;BME280;19045;52.268;10.506;2023-03-25T01:46:28;99243.06;;;8.91;93.79
32638;BME280;19045;52.268;10.506;2023-03-25T01:48:55;99241.97;;;8.92;93.63
32638;BME280;19045;52.268;10.506;2023-03-25T01:51:26;99237.97;;;8.94;93.47
32638;BME280;19045;52.268;10.506;2023-03-25T01:53:55;99239.03;;;8.93;93.71
32638;BME280;19045;52.268;10.506;2023-03-25T01:56:25;99235.78;;;8.96;93.89
32638;BME280;19045;52.268;10.506;2023-03-25T01:58:55;99232.56;;;8.99;93.01
32638;BME280;19045;52.268;10.506;2023-03-25T02:01:22;99229.31;;;9.07;92.61
32638;BME280;19045;52.268;10.506;2023-03-25T02:03:53;99223.41;;;9.05;92.55
32638;BME280;19045;52.268;10.506;2023-03-25T02:06:29;99232.56;;;8.99;93.07
32638;BME280;19045;52.268;10.506;2023-03-25T02:09:01;99228.25;;;9.03;93.17
32638;BME280;19045;52.268;10.506;2023-03-25T02:11:32;99225.53;;;9.08;92.82
32638;BME280;19045;52.268;10.506;2023-03-25T02:14:02;99231.44;;;9.05;93.04
32638;BME280;19045;52.268;10.506;2023-03-25T02:16:39;99221.84;;;9.04;92.62
32638;BME280;19045;52.268;10.506;2023-03-25T02:19:24;99223.41;;;9.05;92.64
32638;BME280;19045;52.268;10.506;2023-03-25T02:22:30;99216.72;;;9.08;92.60
32638;BME280;19045;52.268;10.506;2023-03-25T02:25:40;99222.84;;;9.08;92.24
32638;BME280;19045;52.268;10.506;2023-03-25T02:28:21;99218.53;;;9.17;92.14
32638;BME280;19045;52.268;10.506;2023-03-25T02:31:30;99216.13;;;9.16;91.55
32638;BME280;19045;52.268;10.506;2023-03-25T02:34:30;99211.81;;;9.20;91.24
32638;BME280;19045;52.268;10.506;2023-03-25T02:37:21;99219.63;;;9.16;91.92
32638;BME280;19045;52.268;10.506;2023-03-25T02:39:58;99214.50;;;9.15;92.06
32638;BME280;19045;52.268;10.506;2023-03-25T02:42:33;99214.25;;;9.16;91.13
32638;BME280;19045;52.268;10.506;2023-03-25T02:45:05;99212.66;;;9.15;91.13
32638;BME280;19045;52.268;10.506;2023-03-25T02:47:41;99202.97;;;9.19;91.95
32638;BME280;19045;52.268;10.506;2023-03-25T02:50:13;99208.38;;;9.14;92.19
32638;BME280;19045;52.268;10.506;2023-03-25T02:52:43;99208.94;;;9.11;92.71
32638;BME280;19045;52.268;10.506;2023-03-25T02:55:16;99207.59;;;9.09;93.17
32638;BME280;19045;52.268;10.506;2023-03-25T02:57:45;99202.78;;;9.06;92.91
32638;BME280;19045;52.268;10.506;2023-03-25T03:00:16;99207.63;;;9.04;93.14
32638;BME280;19045;52.268;10.506;2023-03-25T03:02:48;99203.63;;;9.01;92.96
32638;BME280;19045;52.268;10.506;2023-03-25T03:05:22;99203.66;;;8.96;92.62
32638;BME280;19045;52.268;10.506;2023-03-25T03:07:53;99200.72;;;8.93;92.01
32638;BME280;19045;52.268;10.506;2023-03-25T03:10:25;99203.41;;;8.93;91.95
32638;BME280;19045;52.268;10.506;2023-03-25T03:13:02;99207.69;;;8.94;92.26
32638;BME280;19045;52.268;10.506;2023-03-25T03:15:39;99205.81;;;8.94;91.79
32638;BME280;19045;52.268;10.506;2023-03-25T03:18:14;99212.25;;;8.93;91.49
32638;BME280;19045;52.268;10.506;2023-03-25T03:20:55;99208.75;;;8.93;91.03
32638;BME280;19045;52.268;10.506;2023-03-25T03:23:27;99206.88;;;8.93;90.95
32638;BME280;19045;52.268;10.506;2023-03-25T03:26:02;99194.00;;;8.95;90.44
32638;BME280;19045;52.268;10.506;2023-03-25T03:28:34;99209.00;;;8.96;89.97
32638;BME280;19045;52.268;10.506;2023-03-25T03:31:08;99204.72;;;8.95;89.72
32638;BME280;19045;52.268;10.506;2023-03-25T03:33:42;99219.16;;;8.99;89.18
32638;BME280;19045;52.268;10.506;2023-03-25T03:36:14;99212.19;;;8.98;88.72
32638;BME280;19045;52.268;10.506;2023-03-25T03:38:45;99216.53;;;8.94;88.92
32638;BME280;19045;52.268;10.506;2023-03-25T03:41:17;99213.84;;;8.89;89.05
32638;BME280;19045;52.268;10.506;2023-03-25T03:43:48;99216.84;;;8.88;88.87
32638;BME280;19045;52.268;10.506;2023-03-25T03:46:19;99218.16;;;8.90;88.67
32638;BME280;19045;52.268;10.506;2023-03-25T03:48:50;99216.78;;;8.93;88.15
32638;BME280;19045;52.268;10.506;2023-03-25T03:51:22;99220.28;;;8.93;87.96
32638;BME280;19045;52.268;10.506;2023-03-25T03:53:52;99223.22;;;8.92;87.70
32638;BME280;19045;52.268;10.506;2023-03-25T03:56:27;99223.50;;;8.90;87.87
32638;BME280;19045;52.268;10.506;2023-03-25T03:59:03;99226.19;;;8.85;88.22
32638;BME280;19045;52.268;10.506;2023-03-25T04:01:35;99210.94;;;8.86;87.85
32638;BME280;19045;52.268;10.506;2023-03-25T04:04:12;99220.06;;;8.85;88.50
32638;BME280;19045;52.268;10.506;2023-03-25T04:06:43;99223.00;;;8.83;87.91
32638;BME280;19045;52.268;10.506;2023-03-25T04:09:20;99221.38;;;8.82;86.96
32638;BME280;19045;52.268;10.506;2023-03-25T04:11:55;99218.19;;;8.75;87.90
32638;BME280;19045;52.268;10.506;2023-03-25T04:14:24;99220.38;;;8.73;88.10
32638;BME280;19045;52.268;10.506;2023-03-25T04:16:51;99226.00;;;8.71;88.28
32638;BME280;19045;52.268;10.506;2023-03-25T04:19:18;99230.03;;;8.64;88.37
32638;BME280;19045;52.268;10.506;2023-03-25T04:21:45;99215.09;;;8.58;88.30
32638;BME280;19045;52.268;10.506;2023-03-25T04:24:13;99230.06;;;8.54;88.00
32638;BME280;19045;52.268;10.506;2023-03-25T04:26:44;99224.47;;;8.50;88.06
32638;BME280;19045;52.268;10.506;2023-03-25T04:29:13;99222.59;;;8.46;88.63
32638;BME280;19045;52.268;10.506;2023-03-25T04:31:40;99224.75;;;8.44;88.89
32638;BME280;19045;52.268;10.506;2023-03-25T04:34:10;99228.25;;;8.39;89.23
32638;BME280;19045;52.268;10.506;2023-03-25T04:36:39;99231.75;;;8.35;88.52
32638;BME280;19045;52.268;10.506;2023-03-25T04:39:07;99220.25;;;8.34;88.58
32638;BME280;19045;52.268;10.506;2023-03-25T04:41:36;99224.25;;;8.37;89.12
32638;BME280;19045;52.268;10.506;2023-03-25T04:44:03;99225.31;;;8.36;89.25
32638;BME280;19045;52.268;10.506;2023-03-25T04:46:34;99224.25;;;8.37;89.09
32638;BME280;19045;52.268;10.506;2023-03-25T04:49:01;99222.38;;;8.37;88.87
32638;BME280;19045;52.268;10.506;2023-03-25T04:51:30;99225.34;;;8.30;88.72
32638;BME280;19045;52.268;10.506;2023-03-25T04:53:57;99221.84;;;8.30;88.70
32638;BME280;19045;52.268;10.506;2023-03-25T04:56:24;99221.31;;;8.38;88.35
32638;BME280;19045;52.268;10.506;2023-03-25T04:58:50;99213.78;;;8.40;88.84
32638;BME280;19045;52.268;10.506;2023-03-25T05:01:21;99223.16;;;8.43;88.95
32638;BME280;19045;52.268;10.506;2023-03-25T05:03:56;99223.41;;;8.46;88.81
32638;BME280;19045;52.268;10.506;2023-03-25T05:06:29;99218.31;;;8.50;88.92
32638;BME280;19045;52.268;10.506;2023-03-25T05:08:57;99224.22;;;8.47;88.41
32638;BME280;19045;52.268;10.506;2023-03-25T05:11:23;99230.38;;;8.42;88.09
32638;BME280;19045;52.268;10.506;2023-03-25T05:13:50;99226.38;;;8.45;88.47
32638;BME280;19045;52.268;10.506;2023-03-25T05:16:17;99243.53;;;8.28;91.10
32638;BME280;19045;52.268;10.506;2023-03-25T05:18:43;99222.94;;;8.14;95.61
32638;BME280;19045;52.268;10.506;2023-03-25T05:21:11;99229.09;;;7.79;98.85
32638;BME280;19045;52.268;10.506;2023-03-25T05:23:38;99220.00;;;7.60;100.00
32638;BME280;19045;52.268;10.506;2023-03-25T05:26:06;99225.63;;;7.53;100.00
32638;BME280;19045;52.268;10.506;2023-03-25T05:28:33;99233.38;;;7.45;100.00
32638;BME280;19045;52.268;10.506;2023-03-25T05:31:00;99221.09;;;7.44;100.00
32638;BME280;19045;52.268;10.506;2023-03-25T05:33:34;99218.66;;;7.37;100.00
32638;BME280;19045;52.268;10.506;2023-03-25T05:36:10;99222.16;;;7.38;100.00
32638;BME280;19045;52.268;10.506;2023-03-25T05:38:43;99232.31;;;7.36;100.00
32638;BME280;19045;52.268;10.506;2023-03-25T05:41:13;99228.56;;;7.42;100.00
32638;BME280;19045;52.268;10.506;2023-03-25T05:43:41;99234.72;;;7.47;100.00
32638;BME280;19045;52.268;10.506;2023-03-25T05:46:12;99221.88;;;7.44;100.00
32638;BME280;19045;52.268;10.506;2023-03-25T05:48:39;99230.69;;;7.50;100.00
32638;BME280;19045;52.268;10.506;2023-03-25T05:51:11;99237.94;;;7.54;100.00
32638;BME280;19045;52.268;10.506;2023-03-25T05:53:41;99237.16;;;7.59;100.00
32638;BME280;19045;52.268;10.506;2023-03-25T05:56:09;99237.91;;;7.59;100.00
32638;BME280;19045;52.268;10.506;2023-03-25T05:58:36;99244.09;;;7.65;100.00
32638;BME280;19045;52.268;10.506;2023-03-25T06:01:03;99237.66;;;7.61;100.00
32638;BME280;19045;52.268;10.506;2023-03-25T06:03:29;99243.28;;;7.64;100.00
32638;BME280;19045;52.268;10.506;2023-03-25T06:05:58;99247.56;;;7.70;100.00
32638;BME280;19045;52.268;10.506;2023-03-25T06:08:25;99243.81;;;7.71;100.00
32638;BME280;19045;52.268;10.506;2023-03-25T06:10:55;99246.75;;;7.75;100.00
32638;BME280;19045;52.268;10.506;2023-03-25T06:13:25;99247.03;;;7.78;100.00
32638;BME280;19045;52.268;10.506;2023-03-25T06:15:52;99244.06;;;7.80;100.00
32638;BME280;19045;52.268;10.506;2023-03-25T06:18:20;99249.16;;;7.97;100.00
32638;BME280;19045;52.268;10.506;2023-03-25T06:20:49;99243.53;;;8.08;100.00
32638;BME280;19045;52.268;10.506;2023-03-25T06:23:18;99246.72;;;8.10;100.00
32638;BME280;19045;52.268;10.506;2023-03-25T06:25:46;99242.16;;;8.16;100.00
32638;BME280;19045;52.268;10.506;2023-03-25T06:28:14;99241.09;;;8.17;100.00
32638;BME280;19045;52.268;10.506;2023-03-25T06:30:43;99239.50;;;8.21;100.00
32638;BME280;19045;52.268;10.506;2023-03-25T06:33:10;99245.91;;;8.25;99.08
32638;BME280;19045;52.268;10.506;2023-03-25T06:35:38;99254.47;;;8.32;99.73
32638;BME280;19045;52.268;10.506;2023-03-25T06:38:06;99254.75;;;8.36;97.37
32638;BME280;19045;52.268;10.506;2023-03-25T06:40:34;99255.00;;;8.44;97.58
32638;BME280;19045;52.268;10.506;2023-03-25T06:43:02;99255.25;;;8.48;97.20
32638;BME280;19045;52.268;10.506;2023-03-25T06:45:30;99247.75;;;8.55;96.15
32638;BME280;19045;52.268;10.506;2023-03-25T06:47:57;99252.53;;;8.68;95.77
32638;BME280;19045;52.268;10.506;2023-03-25T06:50:23;99257.28;;;8.81;94.23
32638;BME280;19045;52.268;10.506;2023-03-25T06:52:50;99261.03;;;8.75;93.73
32638;BME280;19045;52.268;10.506;2023-03-25T06:55:17;99254.63;;;8.81;93.70
32638;BME280;19045;52.268;10.506;2023-03-25T06:57:43;99254.38;;;8.77;93.92
32638;BME280;19045;52.268;10.506;2023-03-25T07:00:10;99258.31;;;8.85;94.70
32638;BME280;19045;52.268;10.506;2023-03-25T07:02:38;99255.13;;;8.83;92.67
32638;BME280;19045;52.268;10.506;2023-03-25T07:05:06;99258.31;;;8.90;92.74
32638;BME280;19045;52.268;10.506;2023-03-25T07:07:33;99259.94;;;8.86;92.84
32638;BME280;19045;52.268;10.506;2023-03-25T07:09:59;99260.47;;;8.88;91.38
32638;BME280;19045;52.268;10.506;2023-03-25T07:12:26;99255.66;;;8.90;91.63
32638;BME280;19045;52.268;10.506;2023-03-25T07:14:53;99253.50;;;8.87;91.22
32638;BME280;19045;52.268;10.506;2023-03-25T07:17:20;99259.38;;;8.89;91.15
32638;BME280;19045;52.268;10.506;2023-03-25T07:19:49;99258.88;;;8.87;90.49
32638;BME280;19045;52.268;10.506;2023-03-25T07:22:15;99267.97;;;8.91;90.00
32638;BME280;19045;52.268;10.506;2023-03-25T07:24:42;99266.88;;;8.92;89.74
32638;BME280;19045;52.268;10.506;2023-03-25T07:27:10;99262.31;;;8.98;89.50
32638;BME280;19045;52.268;10.506;2023-03-25T07:29:37;99262.00;;;9.04;90.62
32638;BME280;19045;52.268;10.506;2023-03-25T07:32:04;99265.25;;;9.01;89.59
32638;BME280;19045;52.268;10.506;2023-03-25T07:34:31;99268.41;;;9.08;89.68
32638;BME280;19045;52.268;10.506;2023-03-25T07:36:59;99266.78;;;9.12;89.82
32638;BME280;19045;52.268;10.506;2023-03-25T07:39:25;99267.28;;;9.19;88.74
32638;BME280;19045;52.268;10.506;2023-03-25T07:41:52;99268.94;;;9.10;89.01
32638;BME280;19045;52.268;10.506;2023-03-25T07:44:19;99261.16;;;9.14;89.36
32638;BME280;19045;52.268;10.506;2023-03-25T07:46:46;99269.50;;;9.07;89.24
32638;BME280;19045;52.268;10.506;2023-03-25T07:49:15;99266.56;;;8.99;89.75
32638;BME280;19045;52.268;10.506;2023-03-25T07:51:42;99285.63;;;8.92;90.02
32638;BME280;19045;52.268;10.506;2023-03-25T07:54:10;99270.09;;;8.89;90.10
32638;BME280;19045;52.268;10.506;2023-03-25T07:56:37;99279.75;;;8.85;90.15
32638;BME280;19045;52.268;10.506;2023-03-25T07:59:04;99270.09;;;8.89;89.93
32638;BME280;19045;52.268;10.506;2023-03-25T08:01:31;99291.25;;;8.91;90.50
32638;BME280;19045;52.268;10.506;2023-03-25T08:03:57;99294.16;;;8.99;90.48
32638;BME280;19045;52.268;10.506;2023-03-25T08:06:24;99284.19;;;9.15;90.05
32638;BME280;19045;52.268;10.506;2023-03-25T08:08:50;99291.38;;;9.24;89.01
32638;BME280;19045;52.268;10.506;2023-03-25T08:11:19;99282.38;;;9.49;88.25
32638;BME280;19045;52.268;10.506;2023-03-25T08:13:46;99294.53;;;9.37;88.59
32638;BME280;19045;52.268;10.506;2023-03-25T08:16:14;99295.03;;;9.44;88.79
32638;BME280;19045;52.268;10.506;2023-03-25T08:18:41;99288.09;;;9.38;89.31
32638;BME280;19045;52.268;10.506;2023-03-25T08:21:09;99290.78;;;9.38;88.76
32638;BME280;19045;52.268;10.506;2023-03-25T08:23:36;99298.69;;;9.58;88.12
32638;BME280;19045;52.268;10.506;2023-03-25T08:26:03;99299.28;;;9.45;87.92
32638;BME280;19045;52.268;10.506;2023-03-25T08:28:31;99292.91;;;9.41;88.61
32638;BME280;19045;52.268;10.506;2023-03-25T08:30:58;99297.66;;;9.49;88.45
32638;BME280;19045;52.268;10.506;2023-03-25T08:33:27;99298.38;;;9.64;87.08
32638;BME280;19045;52.268;10.506;2023-03-25T08:35:59;99287.22;;;9.86;86.38
32638;BME280;19045;52.268;10.506;2023-03-25T08:38:25;99289.50;;;10.03;85.14
32638;BME280;19045;52.268;10.506;2023-03-25T08:40:56;99287.47;;;9.90;83.43
32638;BME280;19045;52.268;10.506;2023-03-25T08:43:23;99295.22;;;9.91;84.47
32638;BME280;19045;52.268;10.506;2023-03-25T08:45:51;99286.91;;;9.93;83.98
32638;BME280;19045;52.268;10.506;2023-03-25T08:48:17;99300.53;;;10.35;83.54
32638;BME280;19045;52.268;10.506;2023-03-25T08:50:44;99291.56;;;10.45;80.78
32638;BME280;19045;52.268;10.506;2023-03-25T08:53:11;99291.69;;;10.58;80.02
32638;BME280;19045;52.268;10.506;2023-03-25T08:55:37;99282.84;;;10.58;78.96
32638;BME280;19045;52.268;10.506;2023-03-25T08:58:04;99288.47;;;10.32;79.93
32638;BME280;19045;52.268;10.506;2023-03-25T09:00:32;99284.00;;;10.23;80.43
32638;BME280;19045;52.268;10.506;2023-03-25T09:03:02;99286.00;;;10.07;81.41
32638;BME280;19045;52.268;10.506;2023-03-25T09:05:29;99273.66;;;10.06;81.10
32638;BME280;19045;52.268;10.506;2023-03-25T09:07:55;99271.78;;;10.07;80.95
32638;BME280;19045;52.268;10.506;2023-03-25T09:10:22;99280.72;;;9.97;80.51
32638;BME280;19045;52.268;10.506;2023-03-25T09:12:49;99281.34;;;9.84;80.28
32638;BME280;19045;52.268;10.506;2023-03-25T09:15:16;99287.31;;;9.76;81.07
32638;BME280;19045;52.268;10.506;2023-03-25T09:17:43;99275.31;;;9.63;80.65
32638;BME280;19045;52.268;10.506;2023-03-25T09:20:11;99278.06;;;9.53;81.63
32638;BME280;19045;52.268;10.506;2023-03-25T09:22:38;99288.25;;;9.56;81.65
32638;BME280;19045;52.268;10.506;2023-03-25T09:25:05;99278.84;;;9.93;81.46
32638;BME280;19045;52.268;10.506;2023-03-25T09:27:32;99285.28;;;10.30;80.34
32638;BME280;19045;52.268;10.506;2023-03-25T09:29:59;99281.13;;;10.09;80.94
32638;BME280;19045;52.268;10.506;2023-03-25T09:32:26;99283.53;;;10.16;82.03
32638;BME280;19045;52.268;10.506;2023-03-25T09:34:52;99294.88;;;10.03;82.46
32638;BME280;19045;52.268;10.506;2023-03-25T09:37:20;99295.44;;;10.00;82.85
32638;BME280;19045;52.268;10.506;2023-03-25T09:39:47;99288.53;;;9.88;82.92
32638;BME280;19045;52.268;10.506;2023-03-25T09:42:36;99289.50;;;9.69;85.38
32638;BME280;19045;52.268;10.506;2023-03-25T09:45:13;99301.34;;;9.63;86.20
32638;BME280;19045;52.268;10.506;2023-03-25T09:47:51;99289.22;;;9.70;87.01
32638;BME280;19045;52.268;10.506;2023-03-25T09:50:20;99306.88;;;9.76;85.44
32638;BME280;19045;52.268;10.506;2023-03-25T09:52:53;99303.19;;;9.67;85.43
32638;BME280;19045;52.268;10.506;2023-03-25T09:55:24;99319.22;;;9.77;85.30
32638;BME280;19045;52.268;10.506;2023-03-25T09:57:56;99301.03;;;10.03;84.21
32638;BME280;19045;52.268;10.506;2023-03-25T10:00:24;99308.47;;;10.16;83.96
32638;BME280;19045;52.268;10.506;2023-03-25T10:03:04;99288.97;;;10.63;82.65
32638;BME280;19045;52.268;10.506;2023-03-25T10:05:49;99299.50;;;10.83;82.30
32638;BME280;19045;52.268;10.506;2023-03-25T10:08:33;99300.66;;;11.20;80.99
32638;BME280;19045;52.268;10.506;2023-03-25T10:11:06;99293.94;;;12.43;74.86
32638;BME280;19045;52.268;10.506;2023-03-25T10:13:39;99284.53;;;14.08;68.06
32638;BME280;19045;52.268;10.506;2023-03-25T10:16:11;99288.81;;;14.62;65.57
32638;BME280;19045;52.268;10.506;2023-03-25T10:18:57;99267.13;;;15.92;57.30
32638;BME280;19045;52.268;10.506;2023-03-25T10:21:34;99276.13;;;17.23;52.52
32638;BME280;19045;52.268;10.506;2023-03-25T10:24:14;99285.00;;;15.67;56.90
32638;BME280;19045;52.268;10.506;2023-03-25T10:26:46;99285.16;;;13.46;63.67
32638;BME280;19045;52.268;10.506;2023-03-25T10:29:16;99283.25;;;11.73;71.81
32638;BME280;19045;52.268;10.506;2023-03-25T10:31:48;99281.97;;;12.03;71.33
32638;BME280;19045;52.268;10.506;2023-03-25T10:34:17;99281.38;;;12.38;69.19
32638;BME280;19045;52.268;10.506;2023-03-25T10:36:46;99280.53;;;12.24;68.87
32638;BME280;19045;52.268;10.506;2023-03-25T10:39:18;99282.69;;;11.76;70.60
32638;BME280;19045;52.268;10.506;2023-03-25T10:41:50;99270.97;;;11.49;72.79
32638;BME280;19045;52.268;10.506;2023-03-25T10:44:20;99270.72;;;11.64;72.66
32638;BME280;19045;52.268;10.506;2023-03-25T10:46:51;99261.66;;;11.60;70.86
32638;BME280;19045;52.268;10.506;2023-03-25T10:49:20;99261.50;;;11.70;71.07
32638;BME280;19045;52.268;10.506;2023-03-25T10:51:49;99269.88;;;11.50;71.48
32638;BME280;19045;52.268;10.506;2023-03-25T10:54:20;99263.78;;;11.02;73.18
32638;BME280;19045;52.268;10.506;2023-03-25T10:56:51;99263.44;;;11.08;75.55
32638;BME280;19045;52.268;10.506;2023-03-25T10:59:22;99259.34;;;12.04;72.18
32638;BME280;19045;52.268;10.506;2023-03-25T11:01:51;99256.72;;;13.63;60.24
32638;BME280;19045;52.268;10.506;2023-03-25T11:04:20;99249.88;;;14.63;55.78
32638;BME280;19045;52.268;10.506;2023-03-25T11:06:51;99254.84;;;15.43;52.69
32638;BME280;19045;52.268;10.506;2023-03-25T11:09:24;99268.78;;;14.93;54.58
32638;BME280;19045;52.268;10.506;2023-03-25T11:11:52;99258.53;;;17.71;47.74
32638;BME280;19045;52.268;10.506;2023-03-25T11:14:21;99264.31;;;17.69;46.35
32638;BME280;19045;52.268;10.506;2023-03-25T11:16:53;99264.53;;;19.11;43.21
32638;BME280;19045;52.268;10.506;2023-03-25T11:19:24;99272.94;;;18.82;43.32
32638;BME280;19045;52.268;10.506;2023-03-25T11:21:54;99273.94;;;15.29;50.13
32638;BME280;19045;52.268;10.506;2023-03-25T11:24:29;99271.84;;;14.08;53.83
32638;BME280;19045;52.268;10.506;2023-03-25T11:26:56;99293.47;;;13.23;57.11
32638;BME280;19045;52.268;10.506;2023-03-25T11:29:25;99288.47;;;12.48;61.64
32638;BME280;19045;52.268;10.506;2023-03-25T11:32:03;99275.06;;;12.43;63.17
32638;BME280;19045;52.268;10.506;2023-03-25T11:34:31;99282.31;;;12.75;62.93
32638;BME280;19045;52.268;10.506;2023-03-25T11:36:59;99260.19;;;15.00;53.24
32638;BME280;19045;52.268;10.506;2023-03-25T11:39:33;99264.94;;;14.02;54.04
32638;BME280;19045;52.268;10.506;2023-03-25T11:42:10;99249.38;;;13.55;55.69
32638;BME280;19045;52.268;10.506;2023-03-25T11:44:39;99260.59;;;14.37;52.99
32638;BME280;19045;52.268;10.506;2023-03-25T11:47:08;99242.09;;;15.26;51.63
32638;BME280;19045;52.268;10.506;2023-03-25T11:49:38;99252.69;;;13.74;55.11
32638;BME280;19045;52.268;10.506;2023-03-25T11:52:07;99241.06;;;12.47;57.85
32638;BME280;19045;52.268;10.506;2023-03-25T11:54:36;99238.06;;;13.17;56.31
32638;BME280;19045;52.268;10.506;2023-03-25T11:57:05;99245.00;;;12.82;56.73
32638;BME280;19045;52.268;10.506;2023-03-25T11:59:36;99249.84;;;12.93;56.76
32638;BME280;19045;52.268;10.506;2023-03-25T12:02:19;99242.50;;;12.58;57.04
32638;BME280;19045;52.268;10.506;2023-03-25T12:04:55;99241.44;;;12.27;58.18
32638;BME280;19045;52.268;10.506;2023-03-25T12:07:22;99242.06;;;12.37;58.63
32638;BME280;19045;52.268;10.506;2023-03-25T12:09:55;99240.69;;;11.94;60.28
32638;BME280;19045;52.268;10.506;2023-03-25T12:12:32;99248.78;;;12.08;60.85
32638;BME280;19045;52.268;10.506;2023-03-25T12:15:12;99238.66;;;12.18;60.90
32638;BME280;19045;52.268;10.506;2023-03-25T12:17:52;99237.31;;;12.02;60.92
32638;BME280;19045;52.268;10.506;2023-03-25T12:20:25;99227.88;;;11.72;62.69
32638;BME280;19045;52.268;10.506;2023-03-25T12:22:59;99212.88;;;11.66;62.77
32638;BME280;19045;52.268;10.506;2023-03-25T12:25:35;99218.88;;;11.77;64.01
32638;BME280;19045;52.268;10.506;2023-03-25T12:28:17;99227.34;;;11.52;64.04
32638;BME280;19045;52.268;10.506;2023-03-25T12:30:56;99214.09;;;11.55;64.25
32638;BME280;19045;52.268;10.506;2023-03-25T12:33:39;99194.94;;;11.94;61.52
32638;BME280;19045;52.268;10.506;2023-03-25T12:36:19;99210.44;;;12.84;59.45
32638;BME280;19045;52.268;10.506;2023-03-25T12:38:58;99213.34;;;12.60;59.12
32638;BME280;19045;52.268;10.506;2023-03-25T12:41:34;99191.84;;;13.68;55.57
32638;BME280;19045;52.268;10.506;2023-03-25T12:44:06;99218.13;;;14.07;55.11
32638;BME280;19045;52.268;10.506;2023-03-25T12:46:50;99196.53;;;13.62;55.27
32638;BME280;19045;52.268;10.506;2023-03-25T12:49:33;99207.91;;;13.73;55.78
32638;BME280;19045;52.268;10.506;2023-03-25T12:52:10;99201.50;;;13.69;55.72
32638;BME280;19045;52.268;10.506;2023-03-25T12:54:51;99190.47;;;14.71;52.47
32638;BME280;19045;52.268;10.506;2023-03-25T12:57:34;99189.25;;;15.72;50.20
32638;BME280;19045;52.268;10.506;2023-03-25T13:00:14;99192.66;;;16.15;48.74
32638;BME280;19045;52.268;10.506;2023-03-25T13:03:08;99189.84;;;14.91;51.18
32638;BME280;19045;52.268;10.506;2023-03-25T13:05:45;99200.13;;;14.24;53.78
32638;BME280;19045;52.268;10.506;2023-03-25T13:08:18;99197.94;;;13.15;56.52
32638;BME280;19045;52.268;10.506;2023-03-25T13:11:01;99202.75;;;12.50;60.03
32638;BME280;19045;52.268;10.506;2023-03-25T13:13:34;99217.31;;;12.22;60.83